createdAt,value
2022-11-03T00:00:00.186Z,1004.87
2022-11-03T00:05:00.101Z,1004.91
2022-11-03T00:10:00.098Z,1004.82
2022-11-03T00:15:00.100Z,1004.75
2022-11-03T00:20:00.148Z,1004.8
2022-11-03T00:25:00.110Z,1004.79
2022-11-03T00:30:00.384Z,1004.65
2022-11-03T00:35:00.117Z,1004.58
2022-11-03T00:40:00.117Z,1004.58
2022-11-03T00:45:00.099Z,1004.69
2022-11-03T00:50:00.119Z,1004.63
2022-11-03T00:55:00.100Z,1004.64
2022-11-03T01:00:00.196Z,1004.63
2022-11-03T01:05:00.100Z,1004.64
2022-11-03T01:10:00.137Z,1004.55
2022-11-03T01:15:00.103Z,1004.58
2022-11-03T01:20:00.146Z,1004.59
2022-11-03T01:25:00.146Z,1004.55
2022-11-03T01:30:00.117Z,1004.44
2022-11-03T01:35:00.108Z,1004.42
2022-11-03T01:40:00.140Z,1004.35
2022-11-03T01:45:00.141Z,1004.27
2022-11-03T01:50:00.131Z,1004.23
2022-11-03T01:55:00.103Z,1004.18
2022-11-03T02:00:00.140Z,1004.17
2022-11-03T02:05:00.122Z,1004.06
2022-11-03T02:10:00.162Z,1003.89
2022-11-03T02:15:00.096Z,1003.88
2022-11-03T02:20:00.165Z,1003.78
2022-11-03T02:25:00.134Z,1003.72
2022-11-03T02:30:00.163Z,1003.75
2022-11-03T02:35:00.107Z,1003.74
2022-11-03T02:40:00.133Z,1003.61
2022-11-03T02:45:00.100Z,1003.6
2022-11-03T02:50:00.246Z,1003.5
2022-11-03T02:55:00.121Z,1003.4
2022-11-03T03:00:00.194Z,1003.45
2022-11-03T03:05:00.091Z,1003.31
2022-11-03T03:10:00.125Z,1003.35
2022-11-03T03:15:00.107Z,1003.17
2022-11-03T03:20:00.218Z,1003.09
2022-11-03T03:25:00.133Z,1003.13
2022-11-03T03:30:00.169Z,1003.01
2022-11-03T03:35:00.101Z,1002.91
2022-11-03T03:40:00.139Z,1002.81
2022-11-03T03:45:00.106Z,1002.82
2022-11-03T03:50:00.145Z,1002.8
2022-11-03T03:55:00.150Z,1002.67
2022-11-03T04:00:00.149Z,1002.54
2022-11-03T04:05:00.097Z,1002.48
2022-11-03T04:10:00.112Z,1002.48
2022-11-03T04:15:00.088Z,1002.49
2022-11-03T04:20:00.156Z,1002.56
2022-11-03T04:25:00.127Z,1002.55
2022-11-03T04:30:00.097Z,1002.09
2022-11-03T04:35:00.118Z,1001.96
2022-11-03T04:40:00.186Z,1002.06
2022-11-03T04:45:00.104Z,1001.97
2022-11-03T04:50:00.093Z,1001.88
2022-11-03T04:55:00.109Z,1001.75
2022-11-03T05:00:00.153Z,1001.74
2022-11-03T05:05:00.110Z,1001.75
2022-11-03T05:10:00.113Z,1001.73
2022-11-03T05:15:00.101Z,1001.68
2022-11-03T05:20:00.111Z,1001.71
2022-11-03T05:25:00.082Z,1001.72
2022-11-03T05:30:00.704Z,1001.68
2022-11-03T05:35:00.219Z,1001.52
2022-11-03T05:40:00.120Z,1001.51
2022-11-03T05:45:00.134Z,1001.51
2022-11-03T05:50:00.271Z,1001.53
2022-11-03T05:55:00.116Z,1001.62
2022-11-03T06:00:00.211Z,1001.42
2022-11-03T06:05:00.137Z,1001.37
2022-11-03T06:10:00.122Z,1001.39
2022-11-03T06:15:00.099Z,1001.34
2022-11-03T06:20:00.197Z,1001.31
2022-11-03T06:25:00.103Z,1001.31
2022-11-03T06:30:00.111Z,1001.25
2022-11-03T06:35:00.089Z,1001.25
2022-11-03T06:40:00.141Z,1001.16
2022-11-03T06:45:00.095Z,1001.15
2022-11-03T06:50:00.090Z,1001.09
2022-11-03T06:55:00.091Z,1001.12
2022-11-03T07:01:00.387Z,1001.02
2022-11-03T07:05:00.119Z,1001.08
2022-11-03T07:10:00.091Z,1001
2022-11-03T07:15:00.135Z,1000.94
2022-11-03T07:20:00.143Z,1000.94
2022-11-03T07:25:00.084Z,1000.98
2022-11-03T07:30:00.154Z,1001.1
2022-11-03T07:35:00.118Z,1000.93
2022-11-03T07:40:00.118Z,1000.85
2022-11-03T07:45:00.127Z,1000.8
2022-11-03T07:50:00.089Z,1000.77
2022-11-03T07:55:00.093Z,1000.77
2022-11-03T08:00:01.529Z,1000.59
2022-11-03T08:05:00.098Z,1000.55
2022-11-03T08:10:00.115Z,1000.51
2022-11-03T08:15:00.128Z,1000.24
2022-11-03T08:20:00.110Z,1000.32
2022-11-03T08:25:00.127Z,1000.24
2022-11-03T08:30:00.133Z,1000.26
2022-11-03T08:35:00.122Z,1000.14
2022-11-03T08:40:00.150Z,999.99
2022-11-03T08:45:00.091Z,999.91
2022-11-03T08:50:00.126Z,999.84
2022-11-03T08:55:00.194Z,999.69
2022-11-03T09:00:00.153Z,999.77
2022-11-03T09:05:00.108Z,999.67
2022-11-03T09:15:00.143Z,999.42
2022-11-03T09:20:00.122Z,999.39
2022-11-03T09:25:00.130Z,999.32
2022-11-03T09:30:12.604Z,999.24
2022-11-03T09:35:00.127Z,999.21
2022-11-03T09:40:00.128Z,999.2
2022-11-03T09:45:00.106Z,999.06
2022-11-03T09:50:00.190Z,998.88
2022-11-03T09:55:00.127Z,998.91
2022-11-03T10:00:00.177Z,998.85
2022-11-03T10:05:00.216Z,998.82
2022-11-03T10:10:00.117Z,998.64
2022-11-03T10:15:00.117Z,998.53
2022-11-03T10:20:00.145Z,998.46
2022-11-03T10:25:00.112Z,998.48
2022-11-03T10:30:00.148Z,998.36
2022-11-03T10:35:00.128Z,998.24
2022-11-03T10:40:00.095Z,998.12
2022-11-03T10:45:00.120Z,997.98
2022-11-03T10:50:00.166Z,997.98
2022-11-03T10:55:00.154Z,997.86
2022-11-03T11:00:00.202Z,997.79
2022-11-03T11:05:00.132Z,997.78
2022-11-03T11:10:00.115Z,997.74
2022-11-03T11:15:00.102Z,997.58
2022-11-03T11:20:00.149Z,997.59
2022-11-03T11:25:00.112Z,997.54
2022-11-03T11:30:00.093Z,997.37
2022-11-03T11:35:00.095Z,997.41
2022-11-03T11:40:00.122Z,997.26
2022-11-03T11:45:00.139Z,997.25
2022-11-03T11:50:00.237Z,997.09
2022-11-03T11:55:00.110Z,996.93
2022-11-03T12:00:00.148Z,996.87
2022-11-03T12:05:00.104Z,996.86
2022-11-03T12:10:00.107Z,996.66
2022-11-03T12:15:00.115Z,996.5
2022-11-03T12:20:00.131Z,996.31
2022-11-03T12:25:00.111Z,996.31
2022-11-03T12:30:00.161Z,996.19
2022-11-03T12:35:00.159Z,996.09
2022-11-03T12:40:00.208Z,995.98
2022-11-03T12:45:00.151Z,995.85
2022-11-03T12:50:00.098Z,995.63
2022-11-03T12:55:00.114Z,995.45
2022-11-03T13:00:00.190Z,995.41
2022-11-03T13:05:00.124Z,995.34
2022-11-03T13:10:00.104Z,995.21
2022-11-03T13:15:00.130Z,995.22
2022-11-03T13:20:00.187Z,995.12
2022-11-03T13:25:00.096Z,994.99
2022-11-03T13:30:00.436Z,994.79
2022-11-03T13:35:00.100Z,994.82
2022-11-03T13:40:00.118Z,994.76
2022-11-03T13:45:00.213Z,994.6
2022-11-03T13:50:13.461Z,994.44
2022-11-03T14:00:03.524Z,994.22
2022-11-03T14:05:00.107Z,994.13
2022-11-03T14:10:02.428Z,994.03
2022-11-03T14:15:00.134Z,993.81
2022-11-03T14:20:04.008Z,993.76
2022-11-03T14:25:00.084Z,993.77
2022-11-03T14:30:00.313Z,993.72
2022-11-03T14:35:00.180Z,993.73
2022-11-03T14:40:00.121Z,993.56
2022-11-03T14:45:00.127Z,993.45
2022-11-03T14:50:00.093Z,993.43
2022-11-03T14:55:00.112Z,993.22
2022-11-03T15:00:00.224Z,993.13
2022-11-03T15:05:00.098Z,992.96
2022-11-03T15:10:00.099Z,992.85
2022-11-03T15:15:00.112Z,992.71
2022-11-03T15:20:00.115Z,992.71
2022-11-03T15:25:16.785Z,992.63
2022-11-03T15:30:00.145Z,992.82
2022-11-03T15:35:00.110Z,992.74
2022-11-03T15:40:00.257Z,992.72
2022-11-03T15:45:00.127Z,992.72
2022-11-03T15:50:00.125Z,992.47
2022-11-03T15:55:00.105Z,992.33
2022-11-03T16:00:00.195Z,992.36
2022-11-03T16:05:00.133Z,992.25
2022-11-03T16:10:00.123Z,992.11
2022-11-03T16:15:00.115Z,992.06
2022-11-03T16:20:00.178Z,991.9
2022-11-03T16:25:00.108Z,991.8
2022-11-03T16:30:00.230Z,991.51
2022-11-03T16:35:00.092Z,991.55
2022-11-03T16:40:00.135Z,991.46
2022-11-03T16:45:00.116Z,991.4
2022-11-03T16:50:00.092Z,991.23
2022-11-03T16:55:00.130Z,991.24
2022-11-03T17:00:00.169Z,991.06
2022-11-03T17:05:00.111Z,991.05
2022-11-03T17:10:00.123Z,990.88
2022-11-03T17:15:00.174Z,990.75
2022-11-03T17:20:00.172Z,990.77
2022-11-03T17:25:00.534Z,990.71
2022-11-03T17:30:00.196Z,990.59
2022-11-03T17:35:00.133Z,990.4
2022-11-03T17:40:00.136Z,990.51
2022-11-03T17:45:00.129Z,990.5
2022-11-03T17:50:00.106Z,990.42
2022-11-03T17:55:00.124Z,990.33
2022-11-03T18:00:00.207Z,990.18
2022-11-03T18:05:00.137Z,989.97
2022-11-03T18:10:00.140Z,990.18
2022-11-03T18:15:00.109Z,990.19
2022-11-03T18:20:00.143Z,990.12
2022-11-03T18:25:00.123Z,989.9
2022-11-03T18:30:00.118Z,989.79
2022-11-03T18:35:00.111Z,989.81
2022-11-03T18:40:00.182Z,989.68
2022-11-03T18:45:02.815Z,989.6
2022-11-03T18:50:00.567Z,989.36
2022-11-03T18:55:00.522Z,989.46
2022-11-03T19:00:00.179Z,989.39
2022-11-03T19:05:00.113Z,989.36
2022-11-03T19:10:00.121Z,989.34
2022-11-03T19:15:00.133Z,989.03
2022-11-03T19:20:00.154Z,988.95
2022-11-03T19:25:00.121Z,988.89
2022-11-03T19:30:00.140Z,988.76
2022-11-03T19:35:00.112Z,988.74
2022-11-03T19:40:00.151Z,988.71
2022-11-03T19:45:00.142Z,988.59
2022-11-03T19:50:00.175Z,988.62
2022-11-03T19:55:00.167Z,988.41
2022-11-03T20:00:00.180Z,988.42
2022-11-03T20:05:00.093Z,988.43
2022-11-03T20:10:00.141Z,988.41
2022-11-03T20:15:00.142Z,988.55
2022-11-03T20:20:00.143Z,988.43
2022-11-03T20:25:00.132Z,988.32
2022-11-03T20:30:00.179Z,988.27
2022-11-03T20:35:00.115Z,988.22
2022-11-03T20:40:00.174Z,988.09
2022-11-03T20:45:00.090Z,987.94
2022-11-03T20:50:00.103Z,988.03
2022-11-03T20:55:00.558Z,988.08
2022-11-03T21:00:00.223Z,987.94
2022-11-03T21:05:00.149Z,987.87
2022-11-03T21:10:00.108Z,987.83
2022-11-03T21:15:00.124Z,987.74
2022-11-03T21:20:00.114Z,987.85
2022-11-03T21:25:00.116Z,987.68
2022-11-03T21:30:00.491Z,988.05
2022-11-03T21:35:00.094Z,988.09
2022-11-03T21:40:00.190Z,988.05
2022-11-03T21:45:00.557Z,988.09
2022-11-03T21:55:00.128Z,988.22
2022-11-03T22:00:00.154Z,988.34
2022-11-03T22:05:00.133Z,988.31
2022-11-03T22:10:00.157Z,988.23
2022-11-03T22:15:00.097Z,988.22
2022-11-03T22:20:00.113Z,988.18
2022-11-03T22:25:00.135Z,988.01
2022-11-03T22:30:00.154Z,987.92
2022-11-03T22:35:00.097Z,987.83
2022-11-03T22:40:00.199Z,987.91
2022-11-03T22:45:00.109Z,987.8
2022-11-03T22:50:00.095Z,987.66
2022-11-03T22:55:00.108Z,987.61
2022-11-03T23:00:00.200Z,987.47
2022-11-03T23:05:00.105Z,987.37
2022-11-03T23:10:00.104Z,987.28
2022-11-03T23:15:00.129Z,987.26
2022-11-03T23:20:00.133Z,987.41
2022-11-03T23:25:00.146Z,987.3
2022-11-03T23:30:00.171Z,987.3
2022-11-03T23:35:00.125Z,987.33
2022-11-03T23:40:00.144Z,987.36
2022-11-03T23:45:00.121Z,987.26
2022-11-03T23:50:00.119Z,987.5
2022-11-03T23:55:00.119Z,987.46
